WZZ2447 LZIB-LZKZ
Flight info
| Callsign | WZZ2447 |
|---|---|
| Flight time | 0h 43m |
| Altitude | 21000 |
| Route | NIT N190 TAKOS |
| Aircraft | A320/M-SDE3FGHIRWY/LB1 |
Departure
| Time | 2026-04-22 20:49 |
|---|---|
| Airport | M. R. Štefánik Airport (LZIB) |
Arrival
| Time | 2026-04-22 21:33 |
|---|---|
| Airport | Košice International Airport (LZKZ) |
| Time | Latitude | Longitude | Altitude | Speed | Heading |
|---|---|---|---|---|---|
| 2026-04-22 20:13 | 48.16949 | 17.20147 | 443 ft | 0 kts | 317° |
| 2026-04-22 20:38 | 48.16940 | 17.20158 | 430 ft | 2 kts | 317° |
| 2026-04-22 20:38 | 48.16928 | 17.20176 | 433 ft | 2 kts | 317° |
| 2026-04-22 20:38 | 48.16915 | 17.20193 | 429 ft | 2 kts | 317° |
| 2026-04-22 20:39 | 48.16903 | 17.20210 | 427 ft | 3 kts | 303° |
| 2026-04-22 20:39 | 48.16896 | 17.20233 | 438 ft | 2 kts | 269° |
| 2026-04-22 20:39 | 48.16896 | 17.20234 | 438 ft | 0 kts | 268° |
| 2026-04-22 20:43 | 48.16896 | 17.20230 | 437 ft | 3 kts | 268° |
| 2026-04-22 20:43 | 48.16891 | 17.20188 | 436 ft | 5 kts | 249° |
| 2026-04-22 20:44 | 48.16861 | 17.20162 | 441 ft | 4 kts | 173° |
| 2026-04-22 20:44 | 48.16835 | 17.20183 | 437 ft | 6 kts | 143° |
| 2026-04-22 20:44 | 48.16791 | 17.20246 | 443 ft | 9 kts | 134° |
| 2026-04-22 20:44 | 48.16752 | 17.20306 | 437 ft | 8 kts | 134° |
| 2026-04-22 20:45 | 48.16716 | 17.20350 | 443 ft | 3 kts | 173° |
| 2026-04-22 20:45 | 48.16676 | 17.20325 | 443 ft | 12 kts | 210° |
| 2026-04-22 20:45 | 48.16603 | 17.20231 | 439 ft | 14 kts | 221° |
| 2026-04-22 20:45 | 48.16532 | 17.20140 | 444 ft | 12 kts | 219° |
| 2026-04-22 20:46 | 48.16409 | 17.19987 | 437 ft | 10 kts | 220° |
| 2026-04-22 20:46 | 48.16360 | 17.19926 | 444 ft | 8 kts | 220° |
| 2026-04-22 20:46 | 48.16316 | 17.19865 | 437 ft | 11 kts | 221° |
| 2026-04-22 20:47 | 48.16256 | 17.19801 | 439 ft | 10 kts | 201° |
| 2026-04-22 20:47 | 48.16196 | 17.19808 | 440 ft | 8 kts | 159° |
| 2026-04-22 20:47 | 48.16168 | 17.19835 | 445 ft | 0 kts | 140° |
| 2026-04-22 20:48 | 48.16144 | 17.19870 | 440 ft | 11 kts | 134° |
| 2026-04-22 20:48 | 48.16110 | 17.19959 | 445 ft | 9 kts | 92° |
| 2026-04-22 20:48 | 48.16141 | 17.20029 | 438 ft | 9 kts | 45° |
| 2026-04-22 20:49 | 48.16287 | 17.20240 | 438 ft | 65 kts | 44° |
| 2026-04-22 20:49 | 48.16785 | 17.20953 | 442 ft | 130 kts | 44° |
| 2026-04-22 20:49 | 48.17551 | 17.22053 | 653 ft | 161 kts | 44° |
| 2026-04-22 20:49 | 48.18351 | 17.23209 | 1380 ft | 159 kts | 43° |
| 2026-04-22 20:50 | 48.19143 | 17.24359 | 2086 ft | 159 kts | 44° |
| 2026-04-22 20:50 | 48.19997 | 17.25594 | 2433 ft | 181 kts | 44° |
| 2026-04-22 20:50 | 48.20958 | 17.26982 | 2790 ft | 203 kts | 43° |
| 2026-04-22 20:50 | 48.22039 | 17.28592 | 3046 ft | 235 kts | 50° |
| 2026-04-22 20:51 | 48.22846 | 17.30846 | 3536 ft | 258 kts | 75° |
| 2026-04-22 20:51 | 48.23236 | 17.33531 | 4359 ft | 266 kts | 78° |
| 2026-04-22 20:51 | 48.23605 | 17.36276 | 5318 ft | 270 kts | 78° |
| 2026-04-22 20:51 | 48.23969 | 17.39029 | 6254 ft | 274 kts | 79° |
| 2026-04-22 20:52 | 48.24346 | 17.41889 | 7186 ft | 278 kts | 79° |
| 2026-04-22 20:52 | 48.24726 | 17.44760 | 8094 ft | 282 kts | 78° |
| 2026-04-22 20:52 | 48.25108 | 17.47663 | 8984 ft | 286 kts | 79° |
| 2026-04-22 20:52 | 48.25489 | 17.50575 | 9837 ft | 289 kts | 79° |
| 2026-04-22 20:53 | 48.25888 | 17.53624 | 10334 ft | 309 kts | 79° |
| 2026-04-22 20:53 | 48.26316 | 17.56898 | 10751 ft | 327 kts | 79° |
| 2026-04-22 20:53 | 48.26761 | 17.60292 | 11481 ft | 334 kts | 79° |
| 2026-04-22 20:53 | 48.27213 | 17.63736 | 12248 ft | 338 kts | 79° |
| 2026-04-22 20:54 | 48.27672 | 17.67222 | 13014 ft | 342 kts | 79° |
| 2026-04-22 20:54 | 48.28133 | 17.70751 | 13770 ft | 346 kts | 79° |
| 2026-04-22 20:54 | 48.28600 | 17.74326 | 14499 ft | 350 kts | 79° |
| 2026-04-22 20:54 | 48.29064 | 17.77932 | 15209 ft | 354 kts | 79° |
| 2026-04-22 20:55 | 48.29529 | 17.81577 | 15888 ft | 358 kts | 79° |
| 2026-04-22 20:55 | 48.30000 | 17.85268 | 16569 ft | 361 kts | 79° |
| 2026-04-22 20:55 | 48.30480 | 17.89004 | 17214 ft | 365 kts | 79° |
| 2026-04-22 20:55 | 48.30964 | 17.92778 | 17862 ft | 369 kts | 79° |
| 2026-04-22 20:56 | 48.31447 | 17.96578 | 18491 ft | 372 kts | 79° |
| 2026-04-22 20:56 | 48.31925 | 18.00375 | 19094 ft | 376 kts | 79° |
| 2026-04-22 20:56 | 48.32411 | 18.04253 | 19698 ft | 379 kts | 79° |
| 2026-04-22 20:56 | 48.32903 | 18.08160 | 20299 ft | 382 kts | 79° |
| 2026-04-22 20:57 | 48.33399 | 18.12109 | 20819 ft | 386 kts | 79° |
| 2026-04-22 20:57 | 48.33898 | 18.16085 | 20973 ft | 387 kts | 79° |
| 2026-04-22 20:57 | 48.34386 | 18.19983 | 21008 ft | 373 kts | 79° |
| 2026-04-22 20:57 | 48.34863 | 18.23790 | 21009 ft | 369 kts | 79° |
| 2026-04-22 20:58 | 48.35336 | 18.27573 | 21009 ft | 368 kts | 79° |
| 2026-04-22 20:58 | 48.35807 | 18.31354 | 21009 ft | 367 kts | 79° |
| 2026-04-22 20:58 | 48.36274 | 18.35129 | 21009 ft | 367 kts | 79° |
| 2026-04-22 20:58 | 48.36735 | 18.38860 | 21009 ft | 367 kts | 79° |
| 2026-04-22 20:59 | 48.37199 | 18.42630 | 21009 ft | 367 kts | 79° |
| 2026-04-22 20:59 | 48.37549 | 18.46445 | 21010 ft | 367 kts | 84° |
| 2026-04-22 20:59 | 48.37782 | 18.50277 | 21009 ft | 368 kts | 85° |
| 2026-04-22 20:59 | 48.37976 | 18.54117 | 21008 ft | 368 kts | 86° |
| 2026-04-22 21:00 | 48.38152 | 18.57948 | 21006 ft | 368 kts | 86° |
| 2026-04-22 21:00 | 48.38325 | 18.61785 | 21007 ft | 368 kts | 86° |
| 2026-04-22 21:00 | 48.38502 | 18.65629 | 21008 ft | 368 kts | 86° |
| 2026-04-22 21:00 | 48.38683 | 18.69465 | 21008 ft | 368 kts | 86° |
| 2026-04-22 21:01 | 48.38868 | 18.73315 | 21006 ft | 368 kts | 86° |
| 2026-04-22 21:01 | 48.39053 | 18.77110 | 21005 ft | 368 kts | 86° |
| 2026-04-22 21:01 | 48.39239 | 18.80963 | 21004 ft | 368 kts | 86° |
| 2026-04-22 21:01 | 48.39421 | 18.84804 | 21005 ft | 368 kts | 86° |
| 2026-04-22 21:02 | 48.39603 | 18.88653 | 21002 ft | 368 kts | 86° |
| 2026-04-22 21:02 | 48.39783 | 18.92500 | 21002 ft | 368 kts | 86° |
| 2026-04-22 21:02 | 48.39963 | 18.96347 | 21003 ft | 368 kts | 86° |
| 2026-04-22 21:02 | 48.40141 | 19.00193 | 21002 ft | 368 kts | 86° |
| 2026-04-22 21:03 | 48.40319 | 19.04042 | 21002 ft | 368 kts | 86° |
| 2026-04-22 21:03 | 48.40496 | 19.07886 | 21001 ft | 368 kts | 86° |
| 2026-04-22 21:03 | 48.40670 | 19.11726 | 21001 ft | 368 kts | 86° |
| 2026-04-22 21:03 | 48.40839 | 19.15518 | 21002 ft | 368 kts | 86° |
| 2026-04-22 21:04 | 48.41008 | 19.19363 | 21003 ft | 368 kts | 86° |
| 2026-04-22 21:04 | 48.41176 | 19.23213 | 21002 ft | 368 kts | 86° |
| 2026-04-22 21:04 | 48.41344 | 19.27055 | 21002 ft | 369 kts | 86° |
| 2026-04-22 21:04 | 48.41513 | 19.30916 | 21002 ft | 369 kts | 86° |
| 2026-04-22 21:05 | 48.41682 | 19.34765 | 21003 ft | 369 kts | 86° |
| 2026-04-22 21:05 | 48.41852 | 19.38620 | 21006 ft | 369 kts | 86° |
| 2026-04-22 21:05 | 48.42019 | 19.42471 | 21008 ft | 369 kts | 86° |
| 2026-04-22 21:05 | 48.42181 | 19.46327 | 21008 ft | 369 kts | 86° |
| 2026-04-22 21:06 | 48.42343 | 19.50179 | 21008 ft | 369 kts | 86° |
| 2026-04-22 21:06 | 48.42505 | 19.54040 | 21013 ft | 369 kts | 86° |
| 2026-04-22 21:06 | 48.42665 | 19.57898 | 20982 ft | 367 kts | 86° |
| 2026-04-22 21:06 | 48.42818 | 19.61687 | 20727 ft | 359 kts | 86° |
| 2026-04-22 21:07 | 48.42966 | 19.65404 | 20476 ft | 353 kts | 86° |
| 2026-04-22 21:07 | 48.43109 | 19.69074 | 20226 ft | 350 kts | 86° |
| 2026-04-22 21:07 | 48.43249 | 19.72674 | 19980 ft | 348 kts | 86° |
| 2026-04-22 21:07 | 48.43393 | 19.76315 | 19728 ft | 347 kts | 86° |
| 2026-04-22 21:08 | 48.43537 | 19.79930 | 19477 ft | 345 kts | 86° |
| 2026-04-22 21:08 | 48.43683 | 19.83543 | 19226 ft | 344 kts | 86° |
| 2026-04-22 21:08 | 48.43824 | 19.87131 | 18968 ft | 343 kts | 86° |
| 2026-04-22 21:08 | 48.43960 | 19.90695 | 18691 ft | 338 kts | 86° |
| 2026-04-22 21:09 | 48.44094 | 19.94232 | 18282 ft | 337 kts | 86° |
| 2026-04-22 21:09 | 48.44228 | 19.97746 | 17859 ft | 336 kts | 86° |
| 2026-04-22 21:09 | 48.44361 | 20.01208 | 17445 ft | 335 kts | 86° |
| 2026-04-22 21:09 | 48.44493 | 20.04705 | 17027 ft | 334 kts | 86° |
| 2026-04-22 21:10 | 48.44624 | 20.08190 | 16616 ft | 333 kts | 86° |
| 2026-04-22 21:10 | 48.44751 | 20.11662 | 16205 ft | 332 kts | 87° |
| 2026-04-22 21:10 | 48.44874 | 20.15132 | 15799 ft | 331 kts | 87° |
| 2026-04-22 21:10 | 48.44995 | 20.18590 | 15392 ft | 330 kts | 87° |
| 2026-04-22 21:11 | 48.45116 | 20.22035 | 14994 ft | 329 kts | 87° |
| 2026-04-22 21:11 | 48.45236 | 20.25475 | 14590 ft | 327 kts | 87° |
| 2026-04-22 21:11 | 48.45355 | 20.28892 | 14188 ft | 326 kts | 87° |
| 2026-04-22 21:11 | 48.45474 | 20.32291 | 13787 ft | 325 kts | 87° |
| 2026-04-22 21:12 | 48.45594 | 20.35693 | 13384 ft | 323 kts | 87° |
| 2026-04-22 21:12 | 48.45714 | 20.39068 | 12983 ft | 322 kts | 87° |
| 2026-04-22 21:12 | 48.45831 | 20.42382 | 12582 ft | 320 kts | 87° |
| 2026-04-22 21:12 | 48.45943 | 20.45728 | 12174 ft | 319 kts | 87° |
| 2026-04-22 21:13 | 48.46051 | 20.49065 | 11765 ft | 317 kts | 87° |
| 2026-04-22 21:13 | 48.46158 | 20.52376 | 11471 ft | 312 kts | 87° |
| 2026-04-22 21:13 | 48.46261 | 20.55582 | 11301 ft | 300 kts | 87° |
| 2026-04-22 21:13 | 48.46361 | 20.58684 | 10744 ft | 295 kts | 87° |
| 2026-04-22 21:14 | 48.46461 | 20.61771 | 10294 ft | 293 kts | 87° |
| 2026-04-22 21:14 | 48.46557 | 20.64817 | 9784 ft | 289 kts | 87° |
| 2026-04-22 21:14 | 48.46651 | 20.67843 | 9273 ft | 289 kts | 87° |
| 2026-04-22 21:14 | 48.46744 | 20.70803 | 8879 ft | 286 kts | 87° |
| 2026-04-22 21:15 | 48.46836 | 20.73785 | 8560 ft | 282 kts | 87° |
| 2026-04-22 21:15 | 48.46928 | 20.76725 | 8121 ft | 282 kts | 87° |
| 2026-04-22 21:15 | 48.47020 | 20.79675 | 7702 ft | 281 kts | 87° |
| 2026-04-22 21:15 | 48.47107 | 20.82608 | 7254 ft | 280 kts | 87° |
| 2026-04-22 21:16 | 48.47197 | 20.85527 | 6846 ft | 278 kts | 87° |
| 2026-04-22 21:16 | 48.47286 | 20.88428 | 6434 ft | 276 kts | 87° |
| 2026-04-22 21:16 | 48.47372 | 20.91309 | 6016 ft | 274 kts | 87° |
| 2026-04-22 21:16 | 48.47453 | 20.94171 | 5596 ft | 273 kts | 88° |
| 2026-04-22 21:17 | 48.47533 | 20.97023 | 5162 ft | 270 kts | 88° |
| 2026-04-22 21:17 | 48.47613 | 20.99832 | 4501 ft | 267 kts | 87° |
| 2026-04-22 21:17 | 48.47695 | 21.02626 | 3873 ft | 267 kts | 87° |
| 2026-04-22 21:17 | 48.47772 | 21.05352 | 3735 ft | 253 kts | 88° |
| 2026-04-22 21:18 | 48.47842 | 21.07932 | 3606 ft | 240 kts | 88° |
| 2026-04-22 21:18 | 48.47908 | 21.10352 | 3487 ft | 228 kts | 88° |
| 2026-04-22 21:18 | 48.47972 | 21.12679 | 3393 ft | 217 kts | 87° |
| 2026-04-22 21:18 | 48.48231 | 21.14838 | 3376 ft | 204 kts | 69° |
| 2026-04-22 21:19 | 48.48915 | 21.16670 | 3376 ft | 199 kts | 50° |
| 2026-04-22 21:19 | 48.49938 | 21.18052 | 3380 ft | 197 kts | 31° |
| 2026-04-22 21:19 | 48.51152 | 21.18838 | 3396 ft | 182 kts | 13° |
| 2026-04-22 21:19 | 48.52357 | 21.19259 | 3224 ft | 174 kts | 12° |
| 2026-04-22 21:20 | 48.53527 | 21.19664 | 3023 ft | 170 kts | 12° |
| 2026-04-22 21:20 | 48.54667 | 21.20059 | 2788 ft | 166 kts | 12° |
| 2026-04-22 21:20 | 48.55754 | 21.20437 | 2616 ft | 155 kts | 12° |
| 2026-04-22 21:20 | 48.56795 | 21.20795 | 2346 ft | 150 kts | 12° |
| 2026-04-22 21:21 | 48.57782 | 21.21145 | 2169 ft | 144 kts | 12° |
| 2026-04-22 21:21 | 48.58748 | 21.21470 | 2003 ft | 141 kts | 11° |
| 2026-04-22 21:21 | 48.59704 | 21.21794 | 1824 ft | 140 kts | 13° |
| 2026-04-22 21:21 | 48.60651 | 21.22133 | 1641 ft | 140 kts | 12° |
| 2026-04-22 21:22 | 48.61596 | 21.22465 | 1466 ft | 139 kts | 12° |
| 2026-04-22 21:22 | 48.62538 | 21.22800 | 1274 ft | 139 kts | 12° |
| 2026-04-22 21:22 | 48.63476 | 21.23128 | 1097 ft | 138 kts | 12° |
| 2026-04-22 21:22 | 48.64415 | 21.23455 | 899 ft | 138 kts | 12° |
| 2026-04-22 21:23 | 48.65365 | 21.23793 | 958 ft | 146 kts | 13° |
| 2026-04-22 21:23 | 48.66378 | 21.24152 | 1762 ft | 153 kts | 12° |
| 2026-04-22 21:23 | 48.67425 | 21.24519 | 2626 ft | 155 kts | 12° |
| 2026-04-22 21:23 | 48.68543 | 21.24914 | 2925 ft | 180 kts | 12° |
| 2026-04-22 21:24 | 48.69861 | 21.25275 | 3211 ft | 206 kts | 0° |
| 2026-04-22 21:24 | 48.71263 | 21.24720 | 3455 ft | 214 kts | 325° |
| 2026-04-22 21:24 | 48.72227 | 21.23031 | 3707 ft | 215 kts | 292° |
| 2026-04-22 21:24 | 48.72409 | 21.20809 | 3840 ft | 216 kts | 258° |
| 2026-04-22 21:25 | 48.71724 | 21.18817 | 3873 ft | 216 kts | 223° |
| 2026-04-22 21:25 | 48.70483 | 21.17539 | 3879 ft | 217 kts | 208° |
| 2026-04-22 21:25 | 48.69143 | 21.16487 | 3882 ft | 217 kts | 207° |
| 2026-04-22 21:25 | 48.67788 | 21.15467 | 3880 ft | 217 kts | 206° |
| 2026-04-22 21:26 | 48.66436 | 21.14459 | 3720 ft | 216 kts | 206° |
| 2026-04-22 21:26 | 48.65089 | 21.13458 | 3399 ft | 215 kts | 206° |
| 2026-04-22 21:26 | 48.63762 | 21.12473 | 3095 ft | 214 kts | 206° |
| 2026-04-22 21:26 | 48.62425 | 21.11483 | 2793 ft | 213 kts | 206° |
| 2026-04-22 21:27 | 48.61094 | 21.10498 | 2497 ft | 212 kts | 206° |
| 2026-04-22 21:27 | 48.59777 | 21.09526 | 2379 ft | 211 kts | 206° |
| 2026-04-22 21:27 | 48.58456 | 21.08550 | 2380 ft | 212 kts | 206° |
| 2026-04-22 21:27 | 48.57049 | 21.07957 | 2382 ft | 212 kts | 178° |
| 2026-04-22 21:28 | 48.55714 | 21.08641 | 2377 ft | 200 kts | 140° |
| 2026-04-22 21:28 | 48.54932 | 21.10323 | 2381 ft | 196 kts | 112° |
| 2026-04-22 21:28 | 48.54480 | 21.12260 | 2380 ft | 195 kts | 107° |
| 2026-04-22 21:28 | 48.54084 | 21.14218 | 2382 ft | 195 kts | 107° |
| 2026-04-22 21:29 | 48.53733 | 21.16105 | 2406 ft | 178 kts | 98° |
| 2026-04-22 21:29 | 48.53883 | 21.17846 | 2373 ft | 161 kts | 68° |
| 2026-04-22 21:29 | 48.54446 | 21.19212 | 2364 ft | 150 kts | 45° |
| 2026-04-22 21:29 | 48.55259 | 21.20138 | 2362 ft | 145 kts | 25° |
| 2026-04-22 21:30 | 48.56214 | 21.20597 | 2364 ft | 144 kts | 12° |
| 2026-04-22 21:30 | 48.57174 | 21.20931 | 2291 ft | 143 kts | 12° |
| 2026-04-22 21:30 | 48.58137 | 21.21265 | 2102 ft | 141 kts | 12° |
| 2026-04-22 21:30 | 48.59087 | 21.21598 | 1923 ft | 140 kts | 12° |
| 2026-04-22 21:31 | 48.60034 | 21.21928 | 1746 ft | 139 kts | 12° |
| 2026-04-22 21:31 | 48.60976 | 21.22266 | 1581 ft | 139 kts | 12° |
| 2026-04-22 21:31 | 48.61923 | 21.22593 | 1380 ft | 139 kts | 12° |
| 2026-04-22 21:31 | 48.62861 | 21.22916 | 1200 ft | 138 kts | 12° |
| 2026-04-22 21:32 | 48.63798 | 21.23245 | 1020 ft | 138 kts | 12° |
| 2026-04-22 21:32 | 48.64720 | 21.23566 | 839 ft | 137 kts | 12° |
| 2026-04-22 21:32 | 48.65622 | 21.23876 | 749 ft | 121 kts | 13° |
| 2026-04-22 21:32 | 48.66111 | 21.24051 | 750 ft | 98 kts | 13° |
| 2026-04-22 21:33 | 48.66705 | 21.24258 | 757 ft | 77 kts | 13° |
| 2026-04-22 21:33 | 48.67100 | 21.24395 | 761 ft | 42 kts | 12° |
| 2026-04-22 21:33 | 48.67217 | 21.24397 | 758 ft | 14 kts | 309° |
| 2026-04-22 21:33 | 48.67257 | 21.24236 | 759 ft | 17 kts | 282° |
| 2026-04-22 21:34 | 48.67285 | 21.24055 | 762 ft | 18 kts | 283° |
| 2026-04-22 21:34 | 48.67312 | 21.23922 | 764 ft | 9 kts | 311° |
| 2026-04-22 21:34 | 48.67337 | 21.23865 | 765 ft | 5 kts | 259° |
| 2026-04-22 21:34 | 48.67321 | 21.23856 | 765 ft | 0 kts | 161° |